createdAt,value
2022-08-21T00:00:35.850Z,61.60
2022-08-21T00:03:09.011Z,61.77
2022-08-21T00:05:38.948Z,61.28
2022-08-21T00:08:07.105Z,61.44
2022-08-21T00:10:35.481Z,62.34
2022-08-21T00:13:04.094Z,63.19
2022-08-21T00:15:33.940Z,62.61
2022-08-21T00:18:01.508Z,62.58
2022-08-21T00:20:29.140Z,62.36
2022-08-21T00:22:57.360Z,62.14
2022-08-21T00:25:26.148Z,61.98
2022-08-21T00:27:54.143Z,61.39
2022-08-21T00:30:23.590Z,62.61
2022-08-21T00:32:53.040Z,64.92
2022-08-21T00:35:22.943Z,65.81
2022-08-21T00:37:50.958Z,66.34
2022-08-21T00:40:21.047Z,66.54
2022-08-21T00:42:53.164Z,66.64
2022-08-21T00:45:21.647Z,66.62
2022-08-21T00:47:49.275Z,65.55
2022-08-21T00:50:22.015Z,64.39
2022-08-21T00:52:50.420Z,63.91
2022-08-21T00:55:18.003Z,66.05
2022-08-21T00:57:48.346Z,66.69
2022-08-21T01:00:30.314Z,66.93
2022-08-21T01:02:58.557Z,65.40
2022-08-21T01:05:28.031Z,64.96
2022-08-21T01:07:57.988Z,64.29
2022-08-21T01:10:25.830Z,64.17
2022-08-21T01:12:54.277Z,64.39
2022-08-21T01:15:23.059Z,66.92
2022-08-21T01:17:51.226Z,67.51
2022-08-21T01:20:19.277Z,65.56
2022-08-21T01:22:48.158Z,65.12
2022-08-21T01:25:17.932Z,64.81
2022-08-21T01:27:45.754Z,64.59
2022-08-21T01:33:59.586Z,66.14
2022-08-21T01:36:27.980Z,67.86
2022-08-21T01:38:57.005Z,68.61
2022-08-21T01:41:24.487Z,66.65
2022-08-21T01:43:52.111Z,66.60
2022-08-21T01:46:19.868Z,67.08
2022-08-21T01:48:47.738Z,66.77
2022-08-21T01:51:16.085Z,66.21
2022-08-21T01:53:43.591Z,66.47
2022-08-21T01:56:14.491Z,68.00
2022-08-21T01:58:43.026Z,66.60
2022-08-21T02:01:11.037Z,66.24
2022-08-21T02:03:38.708Z,65.92
2022-08-21T02:06:07.721Z,65.70
2022-08-21T02:08:36.075Z,65.18
2022-08-21T02:11:03.775Z,64.66
2022-08-21T02:13:32.629Z,65.48
2022-08-21T02:16:00.202Z,65.29
2022-08-21T02:18:27.895Z,65.28
2022-08-21T02:20:56.689Z,68.31
2022-08-21T02:23:26.851Z,69.50
2022-08-21T02:25:55.352Z,68.81
2022-08-21T02:28:23.381Z,70.33
2022-08-21T02:30:52.700Z,69.14
2022-08-21T02:33:20.653Z,68.92
2022-08-21T02:35:48.827Z,69.82
2022-08-21T02:38:19.298Z,68.97
2022-08-21T02:40:51.074Z,68.05
2022-08-21T02:43:19.515Z,67.08
2022-08-21T02:45:47.436Z,67.63
2022-08-21T02:48:18.363Z,67.93
2022-08-21T02:50:47.909Z,68.05
2022-08-21T02:53:17.430Z,68.56
2022-08-21T02:55:46.340Z,70.15
2022-08-21T02:58:14.548Z,71.70
2022-08-21T03:00:42.154Z,73.00
2022-08-21T03:03:09.716Z,72.39
2022-08-21T03:05:39.101Z,71.09
2022-08-21T03:08:10.425Z,71.11
2022-08-21T03:10:38.727Z,70.95
2022-08-21T03:13:06.644Z,69.56
2022-08-21T03:15:34.159Z,69.13
2022-08-21T03:18:01.696Z,68.64
2022-08-21T03:20:30.417Z,69.20
2022-08-21T03:22:59.636Z,69.33
2022-08-21T03:25:39.802Z,69.96
2022-08-21T03:28:10.589Z,70.64
2022-08-21T03:30:40.805Z,71.99
2022-08-21T03:33:08.317Z,71.52
2022-08-21T03:35:35.896Z,70.65
2022-08-21T03:38:04.794Z,69.66
2022-08-21T03:40:32.540Z,69.78
2022-08-21T03:43:00.244Z,71.64
2022-08-21T03:45:28.525Z,72.57
2022-08-21T03:47:58.227Z,71.96
2022-08-21T03:50:27.018Z,71.40
2022-08-21T03:52:54.629Z,70.95
2022-08-21T03:55:23.975Z,71.07
2022-08-21T03:57:51.551Z,71.16
2022-08-21T04:00:19.805Z,72.65
2022-08-21T04:02:48.617Z,73.94
2022-08-21T04:05:27.832Z,72.31
2022-08-21T04:07:56.847Z,71.63
2022-08-21T04:10:26.677Z,73.87
2022-08-21T04:12:54.396Z,72.68
2022-08-21T04:15:23.059Z,71.70
2022-08-21T04:17:50.569Z,74.32
2022-08-21T04:20:18.845Z,72.41
2022-08-21T04:22:46.741Z,71.74
2022-08-21T04:25:15.517Z,70.95
2022-08-21T04:27:44.387Z,71.42
2022-08-21T04:30:13.731Z,73.43
2022-08-21T04:32:44.111Z,72.33
2022-08-21T04:35:12.726Z,72.36
2022-08-21T04:37:42.359Z,74.28
2022-08-21T04:40:12.748Z,72.30
2022-08-21T04:42:46.968Z,71.58
2022-08-21T04:45:20.870Z,74.05
2022-08-21T04:47:52.876Z,74.05
2022-08-21T04:50:21.036Z,72.58
2022-08-21T04:52:48.950Z,73.58
2022-08-21T04:55:18.237Z,74.38
2022-08-21T04:57:48.620Z,73.68
2022-08-21T05:00:19.807Z,74.06
2022-08-21T05:02:48.362Z,75.03
2022-08-21T05:05:16.198Z,75.81
2022-08-21T05:07:44.785Z,76.26
2022-08-21T05:10:13.902Z,76.19
2022-08-21T05:12:42.678Z,75.53
2022-08-21T05:15:13.914Z,74.23
2022-08-21T05:17:41.897Z,74.28
2022-08-21T05:20:10.092Z,72.85
2022-08-21T05:22:37.797Z,71.75
2022-08-21T05:25:10.410Z,71.04
2022-08-21T05:27:39.115Z,70.59
2022-08-21T05:30:08.337Z,70.38
2022-08-21T05:32:37.459Z,70.70
2022-08-21T05:35:05.369Z,70.54
2022-08-21T05:37:33.115Z,69.78
2022-08-21T05:40:05.187Z,70.08
2022-08-21T05:42:54.431Z,69.08
2022-08-21T05:45:42.138Z,68.36
2022-08-21T05:48:14.731Z,68.81
2022-08-21T05:50:42.796Z,68.41
2022-08-21T05:53:11.160Z,68.03
2022-08-21T05:55:44.907Z,67.46
2022-08-21T05:58:13.284Z,68.57
2022-08-21T06:00:41.008Z,68.68
2022-08-21T06:03:14.378Z,67.35
2022-08-21T06:05:41.999Z,67.17
2022-08-21T06:08:09.489Z,67.28
2022-08-21T06:10:37.009Z,66.66
2022-08-21T06:13:05.538Z,66.88
2022-08-21T06:15:33.047Z,66.37
2022-08-21T06:18:00.580Z,67.08
2022-08-21T06:20:29.766Z,68.01
2022-08-21T06:22:57.525Z,65.53
2022-08-21T06:25:25.446Z,67.28
2022-08-21T06:27:53.232Z,66.43
2022-08-21T06:30:21.142Z,65.84
2022-08-21T06:32:48.615Z,65.37
2022-08-21T06:35:16.115Z,65.91
2022-08-21T06:37:44.915Z,65.33
2022-08-21T06:40:13.264Z,64.60
2022-08-21T06:42:41.307Z,65.03
2022-08-21T06:45:10.955Z,63.72
2022-08-21T06:47:38.536Z,62.47
2022-08-21T06:50:08.426Z,63.36
2022-08-21T06:52:36.149Z,63.31
2022-08-21T06:55:07.406Z,62.68
2022-08-21T06:57:34.960Z,61.86
2022-08-21T07:00:02.697Z,61.74
2022-08-21T07:02:30.491Z,62.31
2022-08-21T07:04:58.061Z,61.29
2022-08-21T07:07:25.527Z,61.00
2022-08-21T07:09:53.072Z,61.34
2022-08-21T07:12:21.867Z,61.26
2022-08-21T07:14:49.619Z,60.91
2022-08-21T07:17:17.100Z,60.14
2022-08-21T07:19:44.629Z,60.25
2022-08-21T07:22:12.370Z,60.35
2022-08-21T07:24:39.856Z,59.48
2022-08-21T07:27:10.036Z,59.56
2022-08-21T07:29:39.174Z,58.93
2022-08-21T07:32:07.625Z,58.74
2022-08-21T07:34:35.129Z,58.48
2022-08-21T07:37:06.402Z,58.58
2022-08-21T07:39:38.352Z,58.47
2022-08-21T07:42:08.407Z,58.16
2022-08-21T07:44:36.309Z,58.24
2022-08-21T07:47:05.650Z,58.71
2022-08-21T07:49:33.133Z,57.69
2022-08-21T07:52:00.652Z,58.05
2022-08-21T07:54:33.463Z,57.46
2022-08-21T07:57:02.598Z,57.68
2022-08-21T07:59:30.382Z,57.02
2022-08-21T08:01:58.373Z,56.76
2022-08-21T08:04:27.293Z,57.34
2022-08-21T08:06:54.820Z,57.07
2022-08-21T08:09:22.376Z,57.00
2022-08-21T08:11:49.907Z,56.83
2022-08-21T08:14:18.082Z,57.74
2022-08-21T08:16:46.059Z,57.52
2022-08-21T08:19:13.593Z,56.79
2022-08-21T08:21:42.520Z,56.86
2022-08-21T08:24:19.216Z,56.38
2022-08-21T08:26:53.699Z,56.24
2022-08-21T08:29:22.034Z,55.99
2022-08-21T08:31:49.581Z,55.68
2022-08-21T08:34:25.210Z,55.42
2022-08-21T08:36:54.872Z,55.49
2022-08-21T08:39:27.059Z,55.18
2022-08-21T08:42:01.060Z,55.04
2022-08-21T08:44:29.699Z,55.59
2022-08-21T08:46:58.664Z,56.51
2022-08-21T08:49:29.723Z,56.97
2022-08-21T08:52:02.538Z,56.81
2022-08-21T08:54:33.160Z,56.58
2022-08-21T08:57:01.061Z,56.66
2022-08-21T08:59:34.641Z,54.19
2022-08-21T09:02:02.154Z,53.45
2022-08-21T09:04:30.936Z,54.27
2022-08-21T09:07:07.300Z,53.05
2022-08-21T09:09:45.027Z,50.17
2022-08-21T09:12:18.172Z,51.18
2022-08-21T09:14:55.717Z,52.60
2022-08-21T09:17:42.334Z,52.38
2022-08-21T09:20:16.468Z,51.07
2022-08-21T09:23:00.603Z,49.50
2022-08-21T09:25:30.082Z,48.52
2022-08-21T09:27:57.588Z,47.80
2022-08-21T09:30:29.769Z,46.06
2022-08-21T09:32:57.822Z,45.03
2022-08-21T09:35:26.841Z,44.78
2022-08-21T09:37:59.087Z,45.94
2022-08-21T09:40:33.737Z,45.64
2022-08-21T09:43:03.794Z,46.47
2022-08-21T09:45:33.837Z,46.83
2022-08-21T09:48:11.845Z,46.78
2022-08-21T09:50:39.877Z,47.00
2022-08-21T09:53:18.363Z,46.73
2022-08-21T09:56:08.586Z,45.13
2022-08-21T09:58:38.270Z,45.30
2022-08-21T10:01:07.916Z,45.83
2022-08-21T10:03:35.505Z,44.95
2022-08-21T10:06:09.564Z,44.70
2022-08-21T10:08:41.723Z,44.37
2022-08-21T10:11:11.193Z,44.70
2022-08-21T10:13:49.515Z,43.55
2022-08-21T10:16:29.006Z,43.34
2022-08-21T10:19:04.938Z,44.17
2022-08-21T10:21:36.722Z,44.02
2022-08-21T10:24:09.540Z,43.53
2022-08-21T10:26:46.399Z,43.65
2022-08-21T10:29:22.424Z,43.81
2022-08-21T10:31:56.311Z,43.42
2022-08-21T10:34:35.281Z,43.99
2022-08-21T10:37:10.598Z,43.95
2022-08-21T10:39:48.167Z,43.39
2022-08-21T10:42:31.614Z,43.21
2022-08-21T10:45:09.589Z,42.07
2022-08-21T10:47:42.677Z,41.79
2022-08-21T10:50:15.071Z,41.14
2022-08-21T10:52:59.303Z,42.45
2022-08-21T10:55:34.177Z,43.09
2022-08-21T10:58:06.837Z,43.62
2022-08-21T11:00:38.466Z,43.45
2022-08-21T11:03:09.521Z,41.86
2022-08-21T11:05:41.730Z,40.93
2022-08-21T11:08:15.883Z,41.29
2022-08-21T11:10:57.743Z,42.26
2022-08-21T11:13:31.776Z,40.65
2022-08-21T11:16:07.941Z,40.36
2022-08-21T11:18:39.342Z,40.27
2022-08-21T11:21:22.299Z,40.20
2022-08-21T11:24:04.432Z,40.17
2022-08-21T11:26:45.568Z,38.87
2022-08-21T11:29:22.047Z,38.10
2022-08-21T11:31:57.299Z,37.34
2022-08-21T11:34:35.397Z,37.17
2022-08-21T11:37:07.043Z,37.33
2022-08-21T11:39:40.236Z,36.57
2022-08-21T11:42:17.701Z,36.60
2022-08-21T11:44:51.787Z,36.68
2022-08-21T11:47:27.424Z,36.54
2022-08-21T11:50:05.262Z,35.89
2022-08-21T11:52:48.838Z,36.92
2022-08-21T11:55:23.494Z,35.94
2022-08-21T11:57:56.354Z,35.21
2022-08-21T12:00:28.850Z,35.05
2022-08-21T12:03:01.074Z,35.04
2022-08-21T12:05:32.458Z,35.90
2022-08-21T12:08:06.665Z,34.79
2022-08-21T12:10:36.846Z,34.64
2022-08-21T12:13:36.733Z,34.82
2022-08-21T12:16:13.675Z,34.61
2022-08-21T12:18:41.523Z,33.43
2022-08-21T12:21:26.233Z,34.43
2022-08-21T12:24:03.753Z,33.32
2022-08-21T12:26:33.443Z,33.46
2022-08-21T12:29:25.294Z,33.31
2022-08-21T12:32:04.525Z,33.21
2022-08-21T12:34:41.820Z,34.06
2022-08-21T12:37:28.280Z,32.82
2022-08-21T12:40:01.325Z,31.86
2022-08-21T12:42:44.259Z,31.88
2022-08-21T12:45:44.357Z,31.85
2022-08-21T12:48:20.785Z,31.87
2022-08-21T12:51:05.616Z,32.23
2022-08-21T12:53:50.279Z,31.79
2022-08-21T12:56:22.758Z,32.53
2022-08-21T12:59:05.272Z,32.66
2022-08-21T13:01:50.094Z,30.77
2022-08-21T13:04:32.800Z,31.55
2022-08-21T13:07:29.764Z,32.33
2022-08-21T13:10:07.347Z,32.91
2022-08-21T13:12:51.121Z,33.05
2022-08-21T13:16:18.912Z,32.42
2022-08-21T13:19:41.578Z,32.07
2022-08-21T13:23:37.894Z,31.95
2022-08-21T13:27:43.901Z,31.54
2022-08-21T13:33:25.470Z,30.67
2022-08-21T13:36:01.835Z,31.61
2022-08-21T13:40:12.048Z,31.26
2022-08-21T13:43:24.242Z,31.21
2022-08-21T13:49:29.424Z,30.03
2022-08-21T13:53:00.543Z,28.03
2022-08-21T13:56:47.245Z,28.88
2022-08-21T13:59:08.236Z,29.17
2022-08-21T14:02:13.128Z,28.87
2022-08-21T14:04:53.016Z,28.65
2022-08-21T14:07:24.173Z,28.15
2022-08-21T14:09:52.052Z,29.48
2022-08-21T14:12:26.825Z,28.72
2022-08-21T14:14:55.787Z,28.71
2022-08-21T14:17:33.707Z,28.33
2022-08-21T14:20:01.793Z,28.67
2022-08-21T14:22:33.459Z,28.66
2022-08-21T14:25:03.036Z,29.36
2022-08-21T14:27:32.644Z,29.30
2022-08-21T14:30:02.262Z,29.64
2022-08-21T14:32:32.853Z,29.36
2022-08-21T14:35:00.425Z,28.20
2022-08-21T14:37:27.993Z,27.56
2022-08-21T14:39:55.560Z,28.67
2022-08-21T14:42:23.176Z,28.83
2022-08-21T14:44:52.425Z,28.17
2022-08-21T14:47:19.897Z,27.81
2022-08-21T14:49:47.433Z,27.58
2022-08-21T14:52:14.919Z,28.18
2022-08-21T14:54:42.360Z,27.03
2022-08-21T14:57:12.956Z,27.57
2022-08-21T14:59:40.979Z,27.97
2022-08-21T15:02:11.439Z,28.62
2022-08-21T15:04:39.049Z,27.86
2022-08-21T15:07:06.719Z,28.01
2022-08-21T15:09:34.545Z,28.58
2022-08-21T15:12:03.984Z,28.42
2022-08-21T15:14:33.082Z,28.84
2022-08-21T15:17:00.741Z,28.50
2022-08-21T15:19:30.538Z,27.79
2022-08-21T15:21:58.528Z,28.65
2022-08-21T15:24:26.273Z,28.24
2022-08-21T15:26:54.837Z,28.53
2022-08-21T15:29:23.070Z,28.77
2022-08-21T15:31:56.628Z,29.42
2022-08-21T15:34:27.126Z,29.49
2022-08-21T15:36:57.492Z,29.11
2022-08-21T15:39:31.060Z,28.82
2022-08-21T15:41:59.002Z,28.60
2022-08-21T15:44:27.173Z,28.82
2022-08-21T15:46:54.745Z,28.35
2022-08-21T15:49:22.456Z,27.63
2022-08-21T15:51:49.971Z,27.85
2022-08-21T15:54:19.010Z,26.70
2022-08-21T15:56:48.371Z,27.49
2022-08-21T15:59:18.093Z,28.00
2022-08-21T16:01:46.702Z,27.15
2022-08-21T16:04:28.693Z,26.80
2022-08-21T16:07:01.937Z,27.34
2022-08-21T16:09:34.215Z,26.95
2022-08-21T16:12:02.166Z,27.10
2022-08-21T16:14:30.791Z,28.38
2022-08-21T16:16:58.356Z,28.34
2022-08-21T16:19:27.085Z,27.88
2022-08-21T16:21:54.560Z,27.48
2022-08-21T16:24:22.080Z,28.02
2022-08-21T16:26:57.596Z,27.50
2022-08-21T16:29:26.397Z,26.29
2022-08-21T16:31:54.693Z,27.38
2022-08-21T16:34:22.272Z,26.23
2022-08-21T16:36:49.770Z,25.61
2022-08-21T16:39:17.344Z,24.90
2022-08-21T16:41:45.260Z,25.92
2022-08-21T16:44:14.122Z,25.44
2022-08-21T16:46:42.806Z,25.37
2022-08-21T16:49:10.971Z,26.31
2022-08-21T16:51:38.663Z,27.77
2022-08-21T16:54:06.303Z,28.59
2022-08-21T16:56:34.682Z,26.88
2022-08-21T16:59:05.805Z,26.47
2022-08-21T17:01:35.446Z,26.09
2022-08-21T17:04:04.189Z,26.25
2022-08-21T17:06:31.901Z,25.29
2022-08-21T17:09:01.041Z,25.87
2022-08-21T17:11:38.046Z,26.43
2022-08-21T17:14:08.858Z,26.91
2022-08-21T17:16:37.837Z,26.48
2022-08-21T17:19:06.187Z,26.66
2022-08-21T17:21:33.837Z,25.94
2022-08-21T17:24:01.473Z,26.53
2022-08-21T17:26:28.984Z,27.16
2022-08-21T17:28:56.589Z,27.41
2022-08-21T17:31:24.163Z,27.21
2022-08-21T17:33:54.475Z,27.32
2022-08-21T17:36:26.648Z,27.07
2022-08-21T17:38:54.244Z,27.32
2022-08-21T17:41:22.334Z,27.47
2022-08-21T17:43:51.455Z,27.34
2022-08-21T17:46:21.775Z,27.77
2022-08-21T17:48:49.256Z,27.33
2022-08-21T17:51:31.563Z,27.61
2022-08-21T17:54:26.728Z,27.95
2022-08-21T17:57:16.843Z,28.29
2022-08-21T18:00:15.141Z,27.54
2022-08-21T18:03:12.918Z,27.44
2022-08-21T18:06:14.480Z,27.98
2022-08-21T18:08:55.933Z,27.81
2022-08-21T18:11:41.933Z,28.28
2022-08-21T18:14:27.927Z,28.22
2022-08-21T18:56:31.765Z,31.56
2022-08-21T18:59:15.441Z,31.02
2022-08-21T19:02:12.870Z,30.99
2022-08-21T19:04:57.880Z,31.15
2022-08-21T19:07:56.523Z,31.32
2022-08-21T19:10:37.937Z,31.48
2022-08-21T19:13:32.812Z,31.63
2022-08-21T19:22:32.167Z,36.92
2022-08-21T19:25:14.222Z,37.71
2022-08-21T19:28:11.095Z,38.49
2022-08-21T19:31:16.603Z,39.59
2022-08-21T19:34:12.076Z,36.75
2022-08-21T19:41:25.778Z,40.58
2022-08-21T19:43:49.379Z,40.77
2022-08-21T19:47:04.705Z,41.28
2022-08-21T19:53:31.906Z,42.63
2022-08-21T19:56:57.532Z,42.67
2022-08-21T20:03:09.848Z,42.51
2022-08-21T20:20:23.256Z,43.98
2022-08-21T20:23:30.478Z,45.24
2022-08-21T20:26:32.266Z,45.77
2022-08-21T20:29:25.881Z,46.42
2022-08-21T20:32:04.435Z,46.19
2022-08-21T20:34:46.693Z,46.02
2022-08-21T20:37:36.726Z,46.75
2022-08-21T20:40:11.182Z,46.47
2022-08-21T20:42:55.137Z,46.97
2022-08-21T20:45:28.250Z,46.69
2022-08-21T20:48:14.423Z,47.21
2022-08-21T20:55:14.432Z,47.76
2022-08-21T21:01:55.123Z,48.66
2022-08-21T21:05:01.548Z,48.63
2022-08-21T21:07:44.581Z,48.70
2022-08-21T21:16:52.586Z,44.94
2022-08-21T21:19:47.692Z,42.44
2022-08-21T21:22:38.563Z,42.07
2022-08-21T21:25:40.512Z,41.49
2022-08-21T21:28:16.243Z,41.36
2022-08-21T21:31:14.308Z,41.27
2022-08-21T21:33:57.405Z,40.99
2022-08-21T21:37:14.615Z,40.78
2022-08-21T21:40:05.668Z,40.94
2022-08-21T21:43:04.421Z,40.90
2022-08-21T21:46:22.853Z,41.18
2022-08-21T21:49:22.252Z,41.01
2022-08-21T21:59:55.261Z,41.63
2022-08-21T22:02:51.639Z,41.66
2022-08-21T22:06:09.838Z,41.92
2022-08-21T22:09:03.088Z,42.09
2022-08-21T22:13:09.893Z,41.99
2022-08-21T22:15:29.922Z,42.12
2022-08-21T22:18:14.227Z,42.04
2022-08-21T22:21:40.140Z,42.40
2022-08-21T22:24:52.075Z,42.49
2022-08-21T22:28:49.494Z,42.37
2022-08-21T22:31:29.051Z,42.36
2022-08-21T22:34:38.314Z,42.33
2022-08-21T22:38:12.293Z,42.48
2022-08-21T22:41:17.901Z,42.81
2022-08-21T22:44:52.756Z,42.96
2022-08-21T22:49:10.133Z,43.08
2022-08-21T22:52:29.026Z,43.11
2022-08-21T22:55:43.940Z,43.55
2022-08-21T22:59:34.741Z,43.60
2022-08-21T23:01:58.270Z,43.28
2022-08-21T23:04:27.171Z,43.26
2022-08-21T23:06:56.229Z,43.64
2022-08-21T23:09:33.370Z,43.55
2022-08-21T23:12:21.214Z,43.71
2022-08-21T23:14:54.848Z,43.73
2022-08-21T23:17:32.795Z,44.10
2022-08-21T23:20:09.926Z,44.01
2022-08-21T23:22:41.236Z,43.91
2022-08-21T23:25:26.900Z,44.01
2022-08-21T23:28:04.441Z,44.32
2022-08-21T23:30:37.848Z,44.57
2022-08-21T23:33:19.692Z,45.28
2022-08-21T23:36:09.549Z,45.12
2022-08-21T23:38:48.426Z,44.81
2022-08-21T23:41:34.210Z,44.54
2022-08-21T23:44:17.246Z,44.86
2022-08-21T23:46:54.217Z,44.71
2022-08-21T23:49:34.241Z,45.13
2022-08-21T23:52:10.334Z,44.98
2022-08-21T23:54:51.680Z,45.26
2022-08-21T23:57:40.569Z,45.37
